Time;durP1;ratioP1;P1;durP2;ratioP2;P2;SDS_P1;SDS_P2;PMS_P1;PMS_P2;Temp;Humidity;BMP_temperature;BMP_pressure;BME280_temperature;BME280_humidity;BME280_pressure;Samples;Min_cycle;Max_cycle;Signal;HPM_P1;HPM_P2
2021/04/18 00:00:46;;;;;;;0.90;0.60;;;20.50;42.50;;;;;;5086383;28;20055;-42
2021/04/18 00:03:12;;;;;;;1.05;0.60;;;20.50;42.50;;;;;;5088517;28;20114;-43
2021/04/18 00:05:37;;;;;;;2.22;0.90;;;20.50;42.40;;;;;;5091556;28;20032;-50
2021/04/18 00:08:04;;;;;;;1.60;0.88;;;20.50;42.50;;;;;;5076952;28;20043;-44
2021/04/18 00:10:37;;;;;;;1.00;0.50;;;20.50;42.50;;;;;;5090269;28;20032;-49
2021/04/18 00:13:03;;;;;;;0.90;0.70;;;20.50;42.40;;;;;;5091617;28;20024;-47
2021/04/18 00:15:29;;;;;;;1.95;0.90;;;20.50;42.40;;;;;;5091860;28;20489;-49
2021/04/18 00:17:55;;;;;;;0.50;0.40;;;20.50;42.40;;;;;;5077619;28;20039;-41
2021/04/18 00:20:21;;;;;;;1.10;0.70;;;20.50;42.40;;;;;;5091328;28;20111;-43
2021/04/18 00:22:49;;;;;;;1.38;0.80;;;20.50;42.50;;;;;;5090525;28;20073;-40
2021/04/18 00:25:18;;;;;;;2.17;0.60;;;20.50;42.40;;;;;;5084082;28;20033;-45
2021/04/18 00:27:44;;;;;;;1.63;0.70;;;20.50;42.40;;;;;;5083879;28;20085;-49
2021/04/18 00:30:13;;;;;;;2.78;0.73;;;20.50;42.40;;;;;;5075933;28;20033;-50
2021/04/18 00:32:39;;;;;;;1.60;0.93;;;20.50;42.40;;;;;;5090739;28;20024;-55
2021/04/18 00:35:09;;;;;;;1.45;0.70;;;20.50;42.40;;;;;;5091681;28;20024;-43
2021/04/18 00:37:35;;;;;;;0.65;0.60;;;20.50;42.40;;;;;;5091830;28;20077;-48
2021/04/18 00:40:04;;;;;;;0.98;0.60;;;20.50;42.40;;;;;;5090956;28;20432;-44
2021/04/18 00:42:29;;;;;;;2.95;0.80;;;20.50;42.40;;;;;;5083629;28;20069;-46
2021/04/18 00:44:55;;;;;;;0.70;0.60;;;20.50;42.40;;;;;;5085456;28;20453;-44
2021/04/18 00:47:21;;;;;;;1.88;0.50;;;20.50;42.30;;;;;;5086764;28;20157;-47
2021/04/18 00:49:47;;;;;;;1.65;0.80;;;20.50;42.30;;;;;;5090487;28;20035;-42
2021/04/18 00:52:13;;;;;;;0.98;0.70;;;20.50;42.30;;;;;;5091062;28;20043;-44
2021/04/18 00:54:38;;;;;;;2.15;0.70;;;20.50;42.30;;;;;;5080223;28;20024;-54
2021/04/18 00:57:06;;;;;;;2.10;0.70;;;20.50;42.30;;;;;;5090698;28;20032;-45
2021/04/18 00:59:32;;;;;;;1.02;0.57;;;20.50;42.30;;;;;;5091501;28;20023;-41
2021/04/18 01:01:58;;;;;;;0.90;0.70;;;20.50;42.30;;;;;;5091297;28;20030;-38
2021/04/18 01:04:23;;;;;;;0.77;0.70;;;20.50;42.30;;;;;;5090610;28;20496;-44
2021/04/18 01:06:49;;;;;;;1.00;0.60;;;20.50;42.30;;;;;;5085661;28;20474;-42
2021/04/18 01:09:15;;;;;;;1.05;0.65;;;20.50;42.30;;;;;;5078716;28;20024;-40
2021/04/18 01:11:40;;;;;;;2.85;0.60;;;20.50;42.30;;;;;;5092298;28;20043;-51
2021/04/18 01:14:06;;;;;;;1.27;0.77;;;20.50;42.20;;;;;;5097600;28;20024;-42
2021/04/18 01:16:32;;;;;;;1.40;0.65;;;20.50;42.30;;;;;;5097565;28;20024;-41
2021/04/18 01:18:57;;;;;;;0.40;0.40;;;20.50;42.20;;;;;;5097171;28;20035;-41
2021/04/18 01:21:23;;;;;;;1.40;0.70;;;20.50;42.90;;;;;;5095047;28;20081;-41
2021/04/18 01:23:49;;;;;;;0.93;0.40;;;20.50;42.30;;;;;;5096607;28;20085;-45
2021/04/18 01:26:14;;;;;;;0.95;0.60;;;20.50;42.20;;;;;;5097845;28;20036;-45
2021/04/18 01:28:42;;;;;;;1.23;0.57;;;20.50;42.20;;;;;;5097128;28;20039;-52
2021/04/18 01:31:08;;;;;;;1.33;0.50;;;20.50;42.30;;;;;;5097879;28;20127;-44
2021/04/18 01:33:34;;;;;;;1.05;0.80;;;20.50;42.30;;;;;;5097888;28;20097;-41
2021/04/18 01:36:03;;;;;;;0.73;0.60;;;20.50;42.20;;;;;;5096731;28;20188;-46
2021/04/18 01:38:28;;;;;;;1.27;0.65;;;20.50;42.20;;;;;;5097101;28;20066;-43
2021/04/18 01:40:55;;;;;;;1.70;0.60;;;20.50;42.20;;;;;;5096560;28;20059;-44
2021/04/18 01:43:20;;;;;;;1.02;0.60;;;20.50;42.20;;;;;;5097746;28;20056;-45
2021/04/18 01:45:50;;;;;;;1.15;0.55;;;20.50;42.20;;;;;;5096158;28;20066;-46
2021/04/18 01:48:15;;;;;;;2.17;0.63;;;20.50;42.20;;;;;;5094609;28;20031;-44
2021/04/18 01:50:43;;;;;;;1.27;0.73;;;20.50;42.20;;;;;;5094955;28;20036;-52
2021/04/18 01:53:10;;;;;;;0.52;0.47;;;20.60;42.20;;;;;;5097513;28;20073;-47
2021/04/18 01:55:36;;;;;;;1.83;0.75;;;20.50;42.20;;;;;;5090776;28;20028;-41
2021/04/18 01:58:03;;;;;;;1.40;0.70;;;20.50;42.20;;;;;;5096603;28;20092;-43
2021/04/18 02:00:29;;;;;;;0.95;0.65;;;20.50;42.20;;;;;;5091387;28;20473;-49
2021/04/18 02:02:54;;;;;;;1.30;0.80;;;20.50;42.20;;;;;;5096347;28;20108;-46
2021/04/18 02:05:20;;;;;;;1.38;0.70;;;20.50;42.20;;;;;;5088416;28;20036;-47
2021/04/18 02:07:46;;;;;;;1.58;0.80;;;20.50;42.20;;;;;;5089004;28;20032;-45
2021/04/18 02:10:13;;;;;;;1.48;0.75;;;20.50;42.20;;;;;;5097006;28;20043;-41
2021/04/18 02:12:38;;;;;;;1.45;0.73;;;20.50;42.20;;;;;;5097471;28;20103;-53
2021/04/18 02:15:05;;;;;;;0.65;0.52;;;20.50;42.10;;;;;;5097256;28;20107;-43
2021/04/18 02:17:30;;;;;;;1.10;0.60;;;20.50;42.20;;;;;;5096971;28;20036;-43
2021/04/18 02:19:56;;;;;;;0.68;0.50;;;20.50;42.20;;;;;;5096257;28;20047;-45
2021/04/18 02:22:22;;;;;;;1.15;0.88;;;20.50;42.20;;;;;;5097104;28;20028;-38
2021/04/18 02:24:47;;;;;;;0.63;0.52;;;20.50;42.20;;;;;;5087961;28;20056;-44
2021/04/18 02:27:13;;;;;;;0.65;0.60;;;20.50;42.20;;;;;;5082241;28;20070;-47
2021/04/18 02:29:39;;;;;;;0.75;0.60;;;20.50;42.10;;;;;;5093907;28;20377;-54
2021/04/18 02:32:05;;;;;;;0.73;0.63;;;20.50;42.20;;;;;;5094003;28;20046;-46
2021/04/18 02:34:31;;;;;;;1.15;0.68;;;20.50;42.20;;;;;;5092105;28;20050;-44
2021/04/18 02:36:56;;;;;;;1.70;0.63;;;20.50;42.20;;;;;;5079093;28;20031;-46
2021/04/18 02:39:22;;;;;;;1.23;0.90;;;20.50;42.20;;;;;;5089615;28;20391;-45
2021/04/18 02:41:49;;;;;;;0.60;0.60;;;20.50;42.20;;;;;;5093023;28;20024;-41
2021/04/18 02:44:15;;;;;;;0.85;0.68;;;20.50;42.20;;;;;;5087141;28;20028;-43
2021/04/18 02:46:40;;;;;;;0.80;0.50;;;20.50;42.20;;;;;;5088801;28;20040;-52
2021/04/18 02:49:06;;;;;;;1.40;0.77;;;20.50;42.10;;;;;;5092906;28;20047;-44
2021/04/18 02:51:32;;;;;;;0.73;0.50;;;20.60;42.80;;;;;;5093639;28;20443;-44
2021/04/18 02:53:59;;;;;;;0.90;0.70;;;20.50;42.10;;;;;;5092860;28;20039;-46
2021/04/18 02:56:26;;;;;;;0.90;0.60;;;20.50;42.10;;;;;;5080459;28;20032;-45
2021/04/18 02:58:52;;;;;;;0.85;0.65;;;20.50;42.10;;;;;;5090446;28;20461;-48
2021/04/18 03:01:18;;;;;;;1.10;0.60;;;20.50;42.10;;;;;;5090978;28;20073;-43
2021/04/18 03:03:43;;;;;;;1.52;0.60;;;20.50;42.10;;;;;;5087770;28;20043;-54
2021/04/18 03:06:09;;;;;;;1.13;0.70;;;20.50;42.20;;;;;;5087702;28;20031;-46
2021/04/18 03:08:35;;;;;;;1.85;0.50;;;20.60;42.20;;;;;;5088839;28;20020;-44
2021/04/18 03:11:00;;;;;;;2.17;0.60;;;20.60;42.10;;;;;;5087024;28;20035;-53
2021/04/18 03:13:26;;;;;;;0.63;0.47;;;20.60;42.20;;;;;;5089429;28;20032;-49
2021/04/18 03:15:52;;;;;;;0.60;0.60;;;20.60;42.20;;;;;;5087615;28;20385;-50
2021/04/18 03:18:17;;;;;;;1.42;0.50;;;20.60;42.20;;;;;;5090773;28;20027;-46
2021/04/18 03:20:43;;;;;;;1.02;0.60;;;20.60;42.10;;;;;;5087359;28;20115;-52
2021/04/18 03:23:09;;;;;;;2.05;0.68;;;20.60;42.20;;;;;;5085903;28;20016;-44
2021/04/18 03:25:35;;;;;;;0.77;0.45;;;20.60;42.20;;;;;;5081557;28;20099;-45
2021/04/18 03:28:01;;;;;;;1.20;0.70;;;20.60;42.20;;;;;;5087851;28;20114;-48
2021/04/18 03:30:27;;;;;;;1.58;0.63;;;20.60;42.20;;;;;;5091943;28;20457;-48
2021/04/18 03:32:53;;;;;;;1.52;0.70;;;20.60;42.20;;;;;;5091691;28;20028;-44
2021/04/18 03:35:19;;;;;;;1.95;0.70;;;20.60;42.20;;;;;;5084289;28;20028;-49
2021/04/18 03:37:45;;;;;;;2.17;0.70;;;20.60;42.20;;;;;;5085143;28;20035;-44
2021/04/18 03:40:11;;;;;;;2.65;0.80;;;20.60;42.20;;;;;;5077316;28;20029;-48
2021/04/18 03:42:37;;;;;;;1.75;0.63;;;20.60;42.20;;;;;;5091944;28;20108;-39
2021/04/18 03:45:06;;;;;;;1.60;0.60;;;20.60;42.10;;;;;;5091635;28;20043;-48
2021/04/18 03:47:32;;;;;;;0.85;0.68;;;20.60;42.20;;;;;;5092225;28;20848;-43
2021/04/18 03:49:57;;;;;;;1.10;0.57;;;20.60;42.10;;;;;;5092271;28;20043;-46
2021/04/18 03:52:24;;;;;;;2.03;0.90;;;20.60;42.10;;;;;;5090752;28;20496;-45
2021/04/18 03:54:49;;;;;;;1.75;0.60;;;20.60;42.10;;;;;;5087418;28;20381;-47
2021/04/18 03:57:15;;;;;;;2.55;0.63;;;20.60;42.10;;;;;;5091338;28;20028;-53
2021/04/18 03:59:41;;;;;;;1.73;0.63;;;20.60;42.10;;;;;;5080550;28;20056;-55
2021/04/18 04:02:06;;;;;;;0.70;0.50;;;20.60;42.10;;;;;;5087510;28;20401;-47
2021/04/18 04:04:32;;;;;;;0.70;0.60;;;20.60;42.20;;;;;;5090030;28;20520;-43
2021/04/18 04:06:58;;;;;;;1.40;0.60;;;20.60;42.10;;;;;;5083897;28;20028;-44
2021/04/18 04:09:24;;;;;;;0.93;0.70;;;20.60;42.10;;;;;;5085769;28;20130;-47
2021/04/18 04:11:49;;;;;;;0.70;0.60;;;20.60;42.10;;;;;;5083609;28;20126;-46
2021/04/18 04:14:15;;;;;;;0.85;0.77;;;20.60;42.10;;;;;;5091984;28;20103;-47
2021/04/18 04:16:41;;;;;;;1.30;0.65;;;20.60;42.10;;;;;;5091862;28;20056;-50
2021/04/18 04:19:06;;;;;;;1.13;0.70;;;20.60;42.10;;;;;;5084891;28;20103;-42
2021/04/18 04:21:32;;;;;;;1.08;0.70;;;20.60;42.10;;;;;;5082351;28;20034;-41
2021/04/18 04:23:58;;;;;;;1.02;0.60;;;20.60;42.10;;;;;;5091140;28;20135;-42
2021/04/18 04:26:23;;;;;;;0.68;0.55;;;20.60;42.10;;;;;;5091737;28;20032;-44
2021/04/18 04:28:49;;;;;;;1.08;0.77;;;20.60;42.10;;;;;;5091178;28;20032;-46
2021/04/18 04:31:15;;;;;;;2.00;0.70;;;20.60;42.10;;;;;;5084515;28;20025;-46
2021/04/18 04:33:41;;;;;;;0.90;0.60;;;20.60;42.10;;;;;;5091464;28;20032;-53
2021/04/18 04:36:07;;;;;;;0.80;0.60;;;20.60;42.00;;;;;;5091755;28;20020;-43
2021/04/18 04:38:33;;;;;;;1.35;0.70;;;20.60;42.00;;;;;;5089335;28;20036;-43
2021/04/18 04:40:59;;;;;;;1.55;0.75;;;20.60;42.10;;;;;;5079524;28;20024;-42
2021/04/18 04:43:25;;;;;;;1.63;0.80;;;20.60;42.00;;;;;;5090960;28;20032;-49
2021/04/18 04:45:52;;;;;;;1.30;0.68;;;20.60;42.00;;;;;;5089661;28;20047;-41
2021/04/18 04:48:17;;;;;;;2.00;0.60;;;20.60;42.10;;;;;;5089842;28;20039;-46
2021/04/18 04:50:43;;;;;;;2.42;0.70;;;20.60;42.10;;;;;;5074544;28;20024;-49
2021/04/18 04:53:09;;;;;;;1.20;0.88;;;20.60;42.10;;;;;;5091260;28;20044;-49
2021/04/18 04:55:35;;;;;;;1.33;0.52;;;20.60;42.00;;;;;;5091552;28;20031;-46
2021/04/18 04:58:01;;;;;;;0.93;0.50;;;20.60;42.00;;;;;;5090477;28;20028;-50
2021/04/18 05:00:26;;;;;;;1.05;0.77;;;20.60;42.00;;;;;;5090231;28;20024;-48
2021/04/18 05:02:52;;;;;;;1.75;0.70;;;20.60;42.10;;;;;;5081510;28;20077;-42
2021/04/18 05:05:17;;;;;;;1.98;0.77;;;20.60;42.00;;;;;;5091534;28;20028;-40
2021/04/18 05:07:43;;;;;;;2.65;0.80;;;20.60;42.00;;;;;;5089702;28;20028;-46
2021/04/18 05:10:10;;;;;;;0.68;0.63;;;20.60;42.00;;;;;;5084760;28;20032;-47
2021/04/18 05:12:35;;;;;;;1.45;0.90;;;20.60;42.10;;;;;;5090747;28;20056;-48
2021/04/18 05:15:01;;;;;;;1.38;0.90;;;20.60;42.00;;;;;;5090592;28;20186;-46
2021/04/18 05:17:28;;;;;;;1.10;0.70;;;20.60;42.10;;;;;;5091383;28;20046;-43
2021/04/18 05:19:53;;;;;;;0.65;0.43;;;20.60;42.10;;;;;;5077242;28;20032;-45
2021/04/18 05:22:19;;;;;;;1.35;0.63;;;20.60;42.10;;;;;;5088195;28;20028;-43
2021/04/18 05:24:45;;;;;;;1.73;0.50;;;20.60;42.10;;;;;;5090256;28;20429;-44
2021/04/18 05:27:11;;;;;;;1.40;0.63;;;20.60;42.20;;;;;;5085101;28;20073;-42
2021/04/18 05:29:36;;;;;;;1.45;0.80;;;20.70;42.20;;;;;;5079293;28;20515;-43
2021/04/18 05:32:02;;;;;;;3.10;0.77;;;20.60;42.20;;;;;;5081104;28;20036;-40
2021/04/18 05:34:28;;;;;;;2.30;0.73;;;20.70;42.20;;;;;;5081507;28;20580;-39
2021/04/18 05:36:53;;;;;;;0.75;0.60;;;20.70;42.30;;;;;;5079798;28;20021;-44
2021/04/18 05:39:19;;;;;;;3.05;0.70;;;20.60;42.20;;;;;;5082486;28;20099;-44
2021/04/18 05:41:45;;;;;;;1.38;1.00;;;20.70;42.30;;;;;;5081674;28;20051;-46
2021/04/18 05:44:14;;;;;;;2.83;1.45;;;20.60;41.70;;;;;;5085527;28;20431;-40
2021/04/18 05:46:41;;;;;;;2.58;1.80;;;20.50;40.90;;;;;;5078780;28;20052;-52
2021/04/18 05:49:07;;;;;;;4.00;2.30;;;20.40;38.30;;;;;;5080269;28;20016;-43
2021/04/18 05:51:32;;;;;;;3.17;1.90;;;20.30;37.50;;;;;;5083161;28;20397;-46
2021/04/18 05:53:58;;;;;;;2.92;2.00;;;20.30;37.90;;;;;;5082114;28;20028;-49
2021/04/18 05:56:24;;;;;;;2.40;1.17;;;20.30;38.10;;;;;;5082538;28;20537;-47
2021/04/18 05:58:49;;;;;;;1.77;1.20;;;20.30;39.80;;;;;;5080652;28;20036;-50
2021/04/18 06:01:21;;;;;;;3.38;1.13;;;20.30;40.30;;;;;;5087205;28;20042;-45
2021/04/18 06:03:46;;;;;;;3.83;1.13;;;20.30;40.30;;;;;;5088089;28;20043;-48
2021/04/18 06:06:12;;;;;;;2.47;1.25;;;20.40;40.30;;;;;;5082659;28;20035;-44
2021/04/18 06:08:37;;;;;;;1.75;0.90;;;20.40;40.40;;;;;;5085558;28;20085;-42
2021/04/18 06:11:04;;;;;;;3.67;1.05;;;20.40;40.50;;;;;;5083391;28;20063;-41
2021/04/18 06:13:30;;;;;;;4.22;1.20;;;20.40;40.60;;;;;;5089598;28;20032;-47
2021/04/18 06:15:55;;;;;;;1.52;0.90;;;20.50;40.60;;;;;;5083237;28;20100;-47
2021/04/18 06:18:21;;;;;;;3.03;0.80;;;20.50;40.70;;;;;;5087572;28;20059;-45
2021/04/18 06:20:47;;;;;;;2.50;0.98;;;20.50;40.70;;;;;;5088699;28;20032;-42
2021/04/18 06:23:12;;;;;;;1.42;0.90;;;20.50;40.90;;;;;;5086449;28;20024;-44
2021/04/18 06:25:38;;;;;;;1.75;0.88;;;20.50;41.00;;;;;;5090663;28;20102;-44
2021/04/18 06:28:04;;;;;;;4.97;1.08;;;20.50;41.00;;;;;;5084948;28;20031;-44
2021/04/18 06:30:29;;;;;;;3.00;0.88;;;20.50;41.00;;;;;;5082288;28;20047;-44
2021/04/18 06:32:55;;;;;;;1.60;0.93;;;20.50;41.10;;;;;;5082975;28;20086;-43
2021/04/18 06:35:21;;;;;;;1.00;0.70;;;20.50;41.10;;;;;;5086426;28;20032;-41
2021/04/18 06:37:46;;;;;;;3.38;0.93;;;20.50;41.20;;;;;;5081642;28;20028;-43
2021/04/18 06:40:13;;;;;;;2.50;0.80;;;20.50;41.20;;;;;;5085907;28;20020;-45
2021/04/18 06:42:40;;;;;;;2.03;0.90;;;20.50;41.30;;;;;;5087664;28;20029;-50
2021/04/18 06:45:07;;;;;;;9.27;1.20;;;20.60;41.40;;;;;;5085082;28;20012;-47
2021/04/18 06:47:36;;;;;;;1.45;0.73;;;20.60;41.40;;;;;;5083439;28;20054;-47
2021/04/18 06:50:02;;;;;;;5.70;0.77;;;20.60;41.40;;;;;;5081437;28;20621;-43
2021/04/18 06:52:28;;;;;;;4.18;0.90;;;20.60;41.70;;;;;;5079076;28;20462;-45
2021/04/18 06:54:54;;;;;;;3.45;1.00;;;20.70;42.00;;;;;;5082206;28;20036;-45
2021/04/18 06:57:19;;;;;;;1.50;0.98;;;20.70;42.10;;;;;;5091498;28;20035;-44
2021/04/18 06:59:45;;;;;;;2.33;0.90;;;20.70;42.10;;;;;;5090829;28;20094;-48
2021/04/18 07:02:31;;;;;;;2.22;1.00;;;20.80;42.40;;;;;;5085539;28;20097;-45
2021/04/18 07:05:04;;;;;;;3.60;1.27;;;20.80;42.50;;;;;;5081297;28;20841;-49
2021/04/18 07:07:33;;;;;;;4.97;0.77;;;20.80;42.50;;;;;;5085676;28;20052;-44
2021/04/18 07:09:59;;;;;;;2.33;0.93;;;20.80;42.80;;;;;;5077455;28;20531;-38
2021/04/18 07:12:30;;;;;;;3.58;0.93;;;20.80;42.70;;;;;;5085240;28;20029;-41
2021/04/18 07:14:57;;;;;;;4.20;0.90;;;20.80;43.30;;;;;;5080796;28;20085;-48
2021/04/18 07:17:24;;;;;;;3.92;0.80;;;20.80;42.70;;;;;;5087440;28;20047;-50
2021/04/18 07:20:11;;;;;;;1.30;0.70;;;20.80;42.70;;;;;;5086263;28;20106;-50
2021/04/18 07:22:37;;;;;;;2.10;0.88;;;20.80;42.70;;;;;;5084457;28;20044;-45
2021/04/18 07:25:03;;;;;;;2.63;0.93;;;20.80;42.70;;;;;;5077230;28;20020;-42
2021/04/18 07:27:52;;;;;;;1.45;0.90;;;20.80;42.70;;;;;;5089184;28;20099;-44
2021/04/18 07:30:23;;;;;;;4.97;0.90;;;20.80;42.80;;;;;;5074874;28;20036;-41
2021/04/18 07:33:07;;;;;;;1.50;0.80;;;20.80;42.70;;;;;;5081849;28;20023;-41
2021/04/18 07:35:37;;;;;;;3.08;0.90;;;20.80;42.80;;;;;;5082607;28;20028;-49
2021/04/18 07:38:23;;;;;;;2.28;0.60;;;20.80;42.70;;;;;;5086323;28;20089;-42
2021/04/18 07:40:51;;;;;;;1.70;1.00;;;20.80;42.80;;;;;;5086373;28;20461;-44
2021/04/18 07:43:18;;;;;;;3.47;0.90;;;20.80;42.70;;;;;;5086956;28;20039;-45
2021/04/18 07:45:46;;;;;;;3.40;0.70;;;20.80;42.80;;;;;;5079364;28;20033;-52
2021/04/18 07:48:15;;;;;;;2.08;0.80;;;20.80;42.90;;;;;;5079729;28;20048;-49
2021/04/18 07:50:44;;;;;;;1.45;0.70;;;20.80;42.90;;;;;;5072590;28;20448;-52
2021/04/18 07:53:10;;;;;;;0.80;0.70;;;20.80;43.00;;;;;;5082756;28;20028;-44
2021/04/18 07:55:36;;;;;;;2.28;0.60;;;20.80;43.00;;;;;;5092422;28;20024;-43
2021/04/18 07:58:04;;;;;;;1.92;0.85;;;20.80;43.00;;;;;;5092208;28;20085;-46
2021/04/18 08:00:31;;;;;;;1.98;0.70;;;20.80;43.10;;;;;;5091536;28;20039;-45
2021/04/18 08:02:57;;;;;;;2.40;1.00;;;20.80;43.00;;;;;;5091827;28;20044;-46
2021/04/18 08:05:29;;;;;;;2.65;0.80;;;20.80;43.10;;;;;;5093358;28;20530;-42
2021/04/18 08:08:00;;;;;;;1.27;0.70;;;20.80;43.10;;;;;;5091921;28;20040;-44
2021/04/18 08:10:28;;;;;;;1.77;0.80;;;20.90;43.50;;;;;;5093020;28;20085;-45
2021/04/18 08:13:00;;;;;;;6.15;1.00;;;20.90;43.60;;;;;;5095414;28;20474;-46
2021/04/18 08:15:26;;;;;;;1.48;1.00;;;20.90;44.30;;;;;;5092580;28;20032;-45
2021/04/18 08:18:09;;;;;;;3.00;0.90;;;20.90;45.20;;;;;;5085924;28;20476;-44
2021/04/18 08:20:45;;;;;;;1.83;0.85;;;20.90;44.50;;;;;;5087355;28;20066;-43
2021/04/18 08:23:14;;;;;;;3.15;1.15;;;20.90;44.60;;;;;;5084619;28;20067;-44
2021/04/18 08:26:05;;;;;;;4.15;0.90;;;20.90;45.30;;;;;;5088403;28;20346;-51
2021/04/18 08:28:31;;;;;;;4.28;1.05;;;20.90;44.70;;;;;;5090141;28;20139;-42
2021/04/18 08:31:04;;;;;;;2.45;1.00;;;20.90;44.70;;;;;;5091734;28;20028;-43
2021/04/18 08:33:52;;;;;;;1.42;0.77;;;21.00;44.70;;;;;;5091610;28;20039;-44
2021/04/18 08:36:22;;;;;;;3.22;1.15;;;20.90;44.60;;;;;;5071834;28;20480;-45
2021/04/18 08:39:09;;;;;;;7.25;1.55;;;20.90;44.70;;;;;;5078182;28;20077;-52
2021/04/18 08:41:44;;;;;;;1.10;0.60;;;20.90;44.80;;;;;;5036335;28;20135;-46
2021/04/18 08:44:26;;;;;;;2.72;0.88;;;20.90;44.70;;;;;;5091198;28;20534;-48
2021/04/18 08:46:58;;;;;;;3.75;0.77;;;20.90;44.80;;;;;;5088970;28;20504;-39
2021/04/18 08:49:35;;;;;;;3.70;1.00;;;21.00;44.70;;;;;;5090774;28;20144;-42
2021/04/18 08:52:10;;;;;;;1.98;1.00;;;21.00;45.00;;;;;;5089859;28;20036;-43
2021/04/18 08:54:39;;;;;;;2.90;1.25;;;21.00;44.90;;;;;;5091803;28;20024;-41
2021/04/18 08:57:09;;;;;;;6.68;1.17;;;21.00;44.80;;;;;;5090003;28;20070;-43
2021/04/18 08:59:35;;;;;;;6.60;0.98;;;21.00;44.70;;;;;;5090945;28;20032;-50
2021/04/18 09:02:07;;;;;;;8.27;1.70;;;21.00;44.80;;;;;;5090318;28;20096;-43
2021/04/18 09:04:42;;;;;;;5.80;1.50;;;21.10;44.60;;;;;;5084100;28;20169;-41
2021/04/18 09:07:11;;;;;;;7.07;1.63;;;21.00;43.90;;;;;;5082254;28;20024;-47
2021/04/18 09:09:37;;;;;;;5.13;1.48;;;21.00;43.30;;;;;;5091148;28;20028;-39
2021/04/18 09:12:03;;;;;;;3.10;1.45;;;20.90;41.40;;;;;;5090005;28;20031;-39
2021/04/18 09:14:32;;;;;;;5.55;1.92;;;20.90;43.30;;;;;;5090406;28;20032;-45
2021/04/18 09:17:24;;;;;;;6.78;1.70;;;20.80;39.60;;;;;;5090214;28;20039;-44
2021/04/18 09:19:52;;;;;;;3.10;1.60;;;20.80;40.30;;;;;;5088381;28;20085;-38
2021/04/18 09:22:19;;;;;;;4.88;1.83;;;20.80;41.10;;;;;;5086447;28;20028;-46
2021/04/18 09:24:51;;;;;;;5.80;1.77;;;20.80;41.80;;;;;;5088940;28;20099;-49
2021/04/18 09:27:26;;;;;;;4.03;1.40;;;20.90;41.80;;;;;;5082503;28;20033;-47
2021/04/18 09:29:59;;;;;;;5.53;1.52;;;20.90;42.10;;;;;;5081792;28;20473;-43
2021/04/18 09:32:27;;;;;;;9.43;1.60;;;20.90;42.20;;;;;;5085632;28;20102;-43
2021/04/18 09:34:53;;;;;;;5.53;1.30;;;20.90;42.30;;;;;;5086645;28;20528;-44
2021/04/18 09:37:22;;;;;;;5.38;1.02;;;20.90;42.20;;;;;;5091803;28;20122;-44
2021/04/18 09:39:54;;;;;;;3.13;1.10;;;20.90;42.30;;;;;;5086156;28;20017;-40
2021/04/18 09:42:20;;;;;;;4.43;1.40;;;21.00;42.40;;;;;;5089971;28;20098;-43
2021/04/18 09:44:47;;;;;;;3.35;1.35;;;21.00;42.60;;;;;;5085155;28;20605;-46
2021/04/18 09:47:28;;;;;;;4.10;0.82;;;20.90;42.40;;;;;;5089854;28;20028;-46
2021/04/18 09:49:59;;;;;;;9.00;1.40;;;21.00;42.70;;;;;;5086290;28;20050;-47
2021/04/18 09:52:28;;;;;;;3.20;1.23;;;20.90;42.80;;;;;;5091218;28;20020;-47
2021/04/18 09:54:54;;;;;;;3.58;0.80;;;20.90;42.90;;;;;;5084705;28;20042;-48
2021/04/18 09:57:24;;;;;;;3.30;1.10;;;20.90;42.90;;;;;;5092597;28;20515;-43
2021/04/18 10:00:06;;;;;;;2.15;1.23;;;20.90;43.00;;;;;;5083813;28;20079;-51
2021/04/18 10:02:32;;;;;;;4.00;1.05;;;20.90;43.20;;;;;;5089030;28;20040;-42
2021/04/18 10:05:12;;;;;;;2.83;0.88;;;20.90;43.20;;;;;;5088463;28;20046;-44
2021/04/18 10:07:39;;;;;;;2.25;0.70;;;20.90;43.20;;;;;;5088496;28;20426;-44
2021/04/18 10:10:06;;;;;;;9.43;2.13;;;20.90;43.30;;;;;;5088220;28;20020;-45
2021/04/18 10:12:48;;;;;;;9.30;1.23;;;21.00;43.30;;;;;;5087915;28;20028;-43
2021/04/18 10:15:14;;;;;;;;;;;21.00;43.40;;;;;;5089688;28;20085;-51
2021/04/18 10:17:39;;;;;;;3.90;1.33;;;21.00;43.50;;;;;;5090403;28;19912;-48
2021/04/18 10:20:06;;;;;;;4.03;0.98;;;21.00;43.60;;;;;;5089066;28;20213;-49
2021/04/18 10:22:32;;;;;;;7.00;1.40;;;20.90;43.60;;;;;;5089643;28;20765;-50
2021/04/18 10:24:58;;;;;;;3.35;0.88;;;20.90;43.70;;;;;;5087086;28;20042;-46
2021/04/18 10:27:27;;;;;;;7.45;1.75;;;20.90;43.70;;;;;;5089664;28;20760;-47
2021/04/18 10:29:54;;;;;;;9.10;1.20;;;21.00;43.80;;;;;;5089891;28;20501;-46
2021/04/18 10:32:21;;;;;;;2.38;0.90;;;21.00;43.70;;;;;;5090914;28;20062;-46
2021/04/18 10:34:52;;;;;;;3.95;1.45;;;21.00;43.80;;;;;;5089082;28;20047;-49
2021/04/18 10:37:18;;;;;;;7.85;1.58;;;20.90;43.80;;;;;;5090821;28;20028;-43
2021/04/18 10:39:46;;;;;;;2.42;1.00;;;20.90;43.90;;;;;;5090575;28;20032;-53
2021/04/18 10:42:12;;;;;;;2.45;1.20;;;20.90;44.00;;;;;;5089662;28;20020;-44
2021/04/18 10:44:40;;;;;;;3.58;0.95;;;21.00;44.00;;;;;;5088803;28;20115;-47
2021/04/18 10:47:12;;;;;;;3.15;1.10;;;20.90;44.00;;;;;;5090049;28;20066;-47
2021/04/18 10:49:38;;;;;;;3.22;1.25;;;20.90;44.00;;;;;;5089170;28;20096;-45
2021/04/18 10:52:04;;;;;;;5.50;1.08;;;21.00;44.10;;;;;;5089785;28;20062;-47
2021/04/18 10:54:29;;;;;;;7.18;2.38;;;20.90;44.00;;;;;;5091217;28;20452;-49
2021/04/18 10:56:55;;;;;;;3.70;1.23;;;20.90;44.20;;;;;;5087169;28;20127;-52
2021/04/18 10:59:22;;;;;;;3.42;1.45;;;21.00;44.20;;;;;;5091489;28;20424;-42
2021/04/18 11:01:49;;;;;;;1.38;0.88;;;21.00;44.20;;;;;;5090066;28;20028;-49
2021/04/18 11:04:18;;;;;;;2.95;1.10;;;20.90;44.20;;;;;;5088386;28;20480;-47
2021/04/18 11:06:45;;;;;;;2.60;1.33;;;21.00;44.30;;;;;;5088732;28;20036;-52
2021/04/18 11:09:12;;;;;;;4.93;1.73;;;21.00;44.30;;;;;;5088337;28;20101;-43
2021/04/18 11:11:37;;;;;;;2.20;1.00;;;21.00;44.20;;;;;;5086886;28;20032;-45
2021/04/18 11:14:05;;;;;;;4.88;1.23;;;21.00;44.40;;;;;;5087049;28;20525;-43
2021/04/18 11:16:32;;;;;;;3.13;1.45;;;21.00;44.30;;;;;;5083606;28;20111;-45
2021/04/18 11:18:58;;;;;;;3.10;1.23;;;21.00;45.20;;;;;;5084733;28;20038;-45
2021/04/18 11:21:24;;;;;;;2.33;1.13;;;21.00;45.10;;;;;;5090779;28;20040;-46
2021/04/18 11:23:51;;;;;;;4.30;1.40;;;21.10;45.40;;;;;;5084497;28;20055;-39
2021/04/18 11:26:17;;;;;;;5.13;1.60;;;21.10;45.50;;;;;;5089662;28;20354;-43
2021/04/18 11:28:43;;;;;;;4.15;1.20;;;21.10;45.70;;;;;;5088258;28;20085;-49
2021/04/18 11:31:09;;;;;;;3.40;1.48;;;21.10;45.90;;;;;;5087649;28;20032;-41
2021/04/18 11:33:36;;;;;;;4.78;1.23;;;21.10;46.00;;;;;;5083080;28;20196;-43
2021/04/18 11:36:03;;;;;;;4.80;1.20;;;21.10;45.80;;;;;;5091565;28;20112;-43
2021/04/18 11:38:31;;;;;;;1.75;1.10;;;21.10;46.00;;;;;;5092159;28;20062;-45
2021/04/18 11:40:57;;;;;;;2.88;1.08;;;21.10;45.90;;;;;;5091610;28;20043;-46
2021/04/18 11:43:24;;;;;;;5.22;1.40;;;21.10;45.70;;;;;;5091557;28;20028;-44
2021/04/18 11:45:50;;;;;;;6.35;1.60;;;21.10;45.70;;;;;;5091551;28;20024;-45
2021/04/18 11:48:15;;;;;;;3.95;1.15;;;21.10;45.60;;;;;;5090377;28;20034;-45
2021/04/18 11:50:41;;;;;;;2.53;1.10;;;21.10;45.60;;;;;;5092458;28;20028;-42
2021/04/18 11:53:08;;;;;;;3.78;1.40;;;21.10;45.60;;;;;;5090541;28;20040;-44
2021/04/18 11:55:36;;;;;;;4.18;1.00;;;21.10;45.50;;;;;;5092029;28;20035;-44
2021/04/18 11:58:03;;;;;;;3.38;1.02;;;21.10;45.50;;;;;;5091685;28;20046;-43
2021/04/18 12:00:29;;;;;;;3.47;1.00;;;21.10;45.60;;;;;;5092508;28;20028;-43
2021/04/18 12:02:55;;;;;;;2.25;0.90;;;21.00;45.40;;;;;;5091582;28;21404;-45
2021/04/18 12:05:21;;;;;;;5.43;1.20;;;21.00;45.40;;;;;;5092323;28;20078;-45
2021/04/18 12:07:46;;;;;;;3.30;1.17;;;21.00;45.50;;;;;;5090662;28;20090;-51
2021/04/18 12:10:13;;;;;;;4.05;1.35;;;21.00;45.50;;;;;;5091982;28;20032;-44
2021/04/18 12:12:40;;;;;;;10.30;1.35;;;21.10;45.40;;;;;;5086390;28;20032;-44
2021/04/18 12:15:08;;;;;;;3.22;1.23;;;21.00;45.40;;;;;;5090780;28;20044;-44
2021/04/18 12:17:35;;;;;;;1.85;1.00;;;21.00;45.40;;;;;;5091323;28;20605;-46
2021/04/18 12:20:03;;;;;;;4.65;1.20;;;21.00;46.10;;;;;;5089017;28;20101;-43
2021/04/18 12:22:28;;;;;;;6.82;1.42;;;21.10;45.80;;;;;;5090115;28;20032;-44
2021/04/18 12:24:55;;;;;;;2.90;1.02;;;21.00;45.70;;;;;;5091510;28;20150;-44
2021/04/18 12:27:21;;;;;;;5.75;0.90;;;21.10;45.70;;;;;;5092265;28;20419;-43
2021/04/18 12:29:46;;;;;;;3.30;1.00;;;21.00;45.70;;;;;;5074575;28;20040;-51
2021/04/18 12:32:13;;;;;;;3.60;1.08;;;21.00;45.70;;;;;;5091403;28;20053;-43
2021/04/18 12:34:39;;;;;;;6.78;1.00;;;21.00;45.50;;;;;;5091705;28;20020;-45
2021/04/18 12:37:05;;;;;;;5.03;1.23;;;21.00;45.50;;;;;;5090373;28;20058;-45
2021/04/18 12:39:31;;;;;;;7.10;1.88;;;21.00;45.50;;;;;;5091322;28;20465;-48
2021/04/18 12:41:57;;;;;;;6.55;1.33;;;21.00;45.70;;;;;;5090670;28;20039;-48
2021/04/18 12:44:23;;;;;;;5.05;1.10;;;21.10;45.80;;;;;;5091214;28;20548;-44
2021/04/18 12:46:50;;;;;;;3.42;1.70;;;21.00;45.70;;;;;;5089107;28;20039;-48
2021/04/18 12:49:15;;;;;;;5.22;2.33;;;20.90;43.40;;;;;;5091519;28;20102;-39